createdAt,value
2022-10-26T00:01:16.473Z,3.78
2022-10-26T00:03:45.863Z,4.28
2022-10-26T00:06:21.991Z,4.22
2022-10-26T00:08:49.258Z,4.00
2022-10-26T00:11:16.725Z,3.83
2022-10-26T00:13:44.189Z,4.00
2022-10-26T00:16:26.592Z,3.40
2022-10-26T00:18:53.514Z,3.83
2022-10-26T00:21:20.525Z,3.67
2022-10-26T00:23:47.406Z,4.20
2022-10-26T00:26:14.221Z,3.78
2022-10-26T00:28:41.463Z,3.50
2022-10-26T00:31:14.793Z,3.65
2022-10-26T00:33:42.124Z,3.42
2022-10-26T00:36:10.360Z,3.58
2022-10-26T00:38:38.352Z,3.28
2022-10-26T00:41:05.613Z,3.33
2022-10-26T00:43:32.305Z,3.40
2022-10-26T00:46:00.412Z,3.40
2022-10-26T00:48:35.040Z,3.17
2022-10-26T00:51:12.475Z,3.33
2022-10-26T00:53:39.844Z,3.40
2022-10-26T00:56:07.189Z,4.00
2022-10-26T00:58:35.971Z,3.60
2022-10-26T01:01:03.135Z,3.53
2022-10-26T01:03:32.255Z,3.50
2022-10-26T01:05:59.503Z,3.65
2022-10-26T01:08:28.777Z,3.30
2022-10-26T01:10:58.414Z,3.45
2022-10-26T01:13:28.725Z,3.75
2022-10-26T01:17:00.380Z,3.30
2022-10-26T01:19:51.951Z,3.70
2022-10-26T01:22:49.953Z,3.15
2022-10-26T01:25:41.327Z,3.10
2022-10-26T01:28:31.830Z,3.38
2022-10-26T01:31:01.804Z,3.70
2022-10-26T01:33:35.190Z,3.80
2022-10-26T01:52:07.722Z,3.25
2022-10-26T01:54:56.516Z,4.10
2022-10-26T02:01:09.981Z,3.83
2022-10-26T02:16:40.342Z,3.80
2022-10-26T02:32:47.440Z,3.47
2022-10-26T02:36:27.933Z,3.60
2022-10-26T02:39:40.724Z,3.78
2022-10-26T02:43:17.433Z,3.70
2022-10-26T03:06:59.349Z,3.60
2022-10-26T03:14:25.184Z,3.60
2022-10-26T03:17:11.543Z,3.75
2022-10-26T03:34:10.194Z,3.65
2022-10-26T03:37:14.558Z,4.18
2022-10-26T03:40:57.607Z,3.90
2022-10-26T03:59:47.551Z,3.67
2022-10-26T04:10:29.285Z,2.80
2022-10-26T04:23:44.893Z,2.90
2022-10-26T04:35:03.254Z,2.78
2022-10-26T04:49:59.777Z,2.95
2022-10-26T05:03:35.444Z,2.28
2022-10-26T05:26:56.432Z,2.40
2022-10-26T05:33:48.233Z,2.35
2022-10-26T05:46:50.994Z,2.63
2022-10-26T06:06:32.952Z,3.08
2022-10-26T06:09:00.097Z,2.17
2022-10-26T06:11:27.312Z,2.50
2022-10-26T06:13:54.908Z,2.97
2022-10-26T06:16:42.008Z,2.13
2022-10-26T06:19:42.128Z,2.67
2022-10-26T06:22:33.019Z,2.67
2022-10-26T06:25:27.384Z,2.78
2022-10-26T06:31:18.745Z,2.40
2022-10-26T06:33:46.002Z,2.47
2022-10-26T06:36:25.390Z,2.70
2022-10-26T06:39:00.209Z,2.83
2022-10-26T06:41:27.702Z,2.60
2022-10-26T06:43:54.931Z,2.88
2022-10-26T06:46:28.103Z,2.90
2022-10-26T06:49:18.919Z,2.53
2022-10-26T06:51:59.174Z,2.75
2022-10-26T06:54:44.096Z,2.50
2022-10-26T06:57:13.497Z,2.47
2022-10-26T06:59:47.919Z,2.80
2022-10-26T07:02:15.442Z,2.78
2022-10-26T07:04:43.719Z,3.10
2022-10-26T07:07:18.744Z,2.55
2022-10-26T07:12:12.509Z,2.47
2022-10-26T07:14:39.448Z,2.90
2022-10-26T07:17:06.933Z,3.08
2022-10-26T07:19:33.731Z,2.90
2022-10-26T07:22:01.410Z,2.40
2022-10-26T07:24:31.428Z,2.90
2022-10-26T07:26:59.014Z,2.67
2022-10-26T07:29:27.447Z,3.40
2022-10-26T07:34:41.514Z,2.83
2022-10-26T07:37:08.529Z,2.13
2022-10-26T07:39:35.307Z,3.13
2022-10-26T07:42:02.149Z,2.50
2022-10-26T07:44:29.106Z,2.60
2022-10-26T07:46:55.868Z,3.25
2022-10-26T07:49:26.091Z,2.67
2022-10-26T07:51:54.773Z,2.33
2022-10-26T07:54:21.577Z,2.28
2022-10-26T07:56:51.748Z,2.70
2022-10-26T07:59:18.635Z,2.60
2022-10-26T08:01:45.555Z,2.78
2022-10-26T08:04:12.473Z,2.70
2022-10-26T08:06:39.315Z,2.90
2022-10-26T08:09:06.239Z,2.75
2022-10-26T08:11:33.292Z,3.03
2022-10-26T08:14:00.118Z,2.80
2022-10-26T08:16:27.068Z,3.03
2022-10-26T08:18:53.887Z,2.65
2022-10-26T08:21:30.390Z,2.42
2022-10-26T08:24:03.360Z,2.47
2022-10-26T08:26:30.809Z,2.55
2022-10-26T08:28:57.668Z,2.40
2022-10-26T08:31:24.749Z,3.10
2022-10-26T08:33:51.507Z,2.50
2022-10-26T08:36:24.555Z,2.33
2022-10-26T08:38:52.631Z,2.03
2022-10-26T08:41:36.408Z,2.53
2022-10-26T08:44:30.531Z,2.08
2022-10-26T08:47:08.461Z,2.13
2022-10-26T08:49:44.475Z,2.30
2022-10-26T08:52:19.221Z,2.10
2022-10-26T08:54:53.327Z,2.35
2022-10-26T08:57:38.460Z,2.17
2022-10-26T09:00:19.244Z,2.00
2022-10-26T09:02:51.271Z,1.90
2022-10-26T09:05:23.860Z,1.67
2022-10-26T09:08:04.487Z,2.00
2022-10-26T09:10:39.715Z,1.67
2022-10-26T09:13:56.385Z,1.88
2022-10-26T09:16:54.312Z,1.63
2022-10-26T09:19:24.436Z,1.90
2022-10-26T09:22:03.358Z,1.90
2022-10-26T09:24:39.196Z,1.85
2022-10-26T09:27:29.080Z,1.73
2022-10-26T09:30:18.615Z,1.70
2022-10-26T09:32:53.605Z,1.63
2022-10-26T09:35:50.091Z,1.50
2022-10-26T09:38:49.224Z,1.60
2022-10-26T09:41:39.145Z,1.70
2022-10-26T09:44:20.464Z,1.30
2022-10-26T09:47:05.212Z,1.75
2022-10-26T09:49:42.663Z,1.65
2022-10-26T09:54:36.517Z,1.48
2022-10-26T09:57:05.041Z,1.40
2022-10-26T09:59:38.724Z,1.63
2022-10-26T10:02:37.703Z,1.80
2022-10-26T10:05:50.693Z,1.55
2022-10-26T10:08:22.293Z,1.40
2022-10-26T10:11:08.367Z,1.63
2022-10-26T10:13:44.150Z,1.40
2022-10-26T10:16:20.872Z,1.80
2022-10-26T10:19:00.135Z,1.85
2022-10-26T10:21:39.183Z,1.92
2022-10-26T10:24:25.559Z,1.60
2022-10-26T10:27:17.527Z,1.90
2022-10-26T10:29:47.183Z,1.60
2022-10-26T10:32:23.360Z,1.55
2022-10-26T10:34:58.461Z,2.38
2022-10-26T10:40:24.474Z,1.70
2022-10-26T10:42:55.417Z,1.70
2022-10-26T10:45:23.085Z,1.92
2022-10-26T10:48:03.238Z,2.30
2022-10-26T10:50:31.750Z,2.58
2022-10-26T10:53:35.720Z,2.60
2022-10-26T10:56:20.644Z,2.30
2022-10-26T10:59:11.397Z,2.53
2022-10-26T11:01:56.915Z,2.17
2022-10-26T11:07:06.480Z,1.95
2022-10-26T11:09:38.148Z,2.25
2022-10-26T11:12:15.786Z,2.40
2022-10-26T11:14:53.819Z,2.80
2022-10-26T11:17:32.032Z,2.33
2022-10-26T11:20:16.188Z,2.88
2022-10-26T11:23:02.213Z,2.72
2022-10-26T11:25:44.726Z,2.90
2022-10-26T11:28:34.180Z,2.65
2022-10-26T11:31:11.308Z,2.80
2022-10-26T11:33:47.593Z,2.53
2022-10-26T11:36:22.055Z,2.72
2022-10-26T11:39:14.416Z,3.92
2022-10-26T11:41:51.628Z,2.78
2022-10-26T11:44:40.678Z,2.88
2022-10-26T11:47:22.667Z,3.10
2022-10-26T11:50:12.184Z,2.60
2022-10-26T11:53:10.950Z,3.05
2022-10-26T11:55:39.980Z,2.47
2022-10-26T11:58:11.695Z,2.58
2022-10-26T12:01:14.337Z,2.65
2022-10-26T12:03:50.868Z,3.55
2022-10-26T12:06:26.088Z,2.72
2022-10-26T12:09:18.155Z,2.60
2022-10-26T12:11:58.234Z,3.20
2022-10-26T12:14:37.981Z,3.55
2022-10-26T12:17:14.912Z,2.97
2022-10-26T12:19:54.561Z,2.83
2022-10-26T12:22:30.956Z,2.88
2022-10-26T12:25:16.062Z,2.70
2022-10-26T12:27:42.849Z,2.38
2022-10-26T12:30:19.008Z,3.13
2022-10-26T12:32:45.733Z,2.47
2022-10-26T12:35:44.982Z,3.05
2022-10-26T12:38:37.920Z,3.05
2022-10-26T12:41:18.713Z,2.80
2022-10-26T12:43:46.379Z,2.80
2022-10-26T12:46:13.266Z,3.03
2022-10-26T12:48:44.615Z,2.53
2022-10-26T12:51:24.939Z,2.67
2022-10-26T12:53:57.986Z,3.30
2022-10-26T12:56:55.550Z,3.17
2022-10-26T12:59:33.947Z,2.72
2022-10-26T13:02:31.820Z,2.65
2022-10-26T13:05:34.616Z,3.17
2022-10-26T13:08:06.711Z,2.75
2022-10-26T13:10:35.610Z,2.97
2022-10-26T13:13:06.593Z,2.90
2022-10-26T13:15:41.327Z,3.40
2022-10-26T13:18:18.033Z,2.88
2022-10-26T13:21:15.142Z,3.03
2022-10-26T13:23:46.791Z,2.75
2022-10-26T13:26:17.876Z,2.85
2022-10-26T13:29:01.122Z,2.60
2022-10-26T13:31:31.528Z,2.92
2022-10-26T13:37:13.307Z,3.30
2022-10-26T13:39:44.313Z,2.70
2022-10-26T13:42:20.153Z,2.90
2022-10-26T13:44:59.669Z,3.63
2022-10-26T13:47:49.274Z,3.15
2022-10-26T13:50:21.307Z,2.88
2022-10-26T13:52:54.873Z,2.70
2022-10-26T13:55:32.870Z,2.75
2022-10-26T13:58:18.006Z,2.60
2022-10-26T14:01:10.553Z,2.75
2022-10-26T14:03:38.418Z,3.20
2022-10-26T14:06:18.501Z,3.17
2022-10-26T14:08:49.540Z,2.90
2022-10-26T14:11:22.286Z,3.25
2022-10-26T14:13:51.235Z,2.65
2022-10-26T14:16:20.607Z,3.15
2022-10-26T14:18:49.380Z,3.03
2022-10-26T14:21:20.731Z,3.00
2022-10-26T14:23:58.853Z,2.58
2022-10-26T14:26:42.225Z,3.10
2022-10-26T14:29:20.986Z,3.20
2022-10-26T14:31:49.342Z,2.92
2022-10-26T14:34:17.312Z,3.67
2022-10-26T14:37:02.178Z,2.95
2022-10-26T14:39:46.408Z,2.97
2022-10-26T14:42:33.641Z,2.55
2022-10-26T14:45:02.504Z,3.05
2022-10-26T14:47:32.244Z,2.80
2022-10-26T14:52:36.213Z,2.70
2022-10-26T14:55:14.990Z,2.78
2022-10-26T14:57:45.159Z,3.00
2022-10-26T15:00:23.692Z,3.00
2022-10-26T15:02:56.563Z,2.58
2022-10-26T15:05:35.708Z,2.58
2022-10-26T15:08:03.476Z,2.92
2022-10-26T15:10:36.241Z,2.25
2022-10-26T15:13:25.486Z,2.33
2022-10-26T15:15:57.496Z,3.22
2022-10-26T15:18:30.577Z,2.78
2022-10-26T15:20:57.963Z,3.38
2022-10-26T15:23:28.228Z,3.60
2022-10-26T15:25:59.093Z,3.10
2022-10-26T15:28:39.556Z,3.13
2022-10-26T15:31:10.811Z,3.50
2022-10-26T15:34:03.232Z,2.85
2022-10-26T15:36:32.012Z,2.38
2022-10-26T15:39:00.050Z,2.67
2022-10-26T15:41:31.046Z,2.53
2022-10-26T15:44:01.730Z,2.50
2022-10-26T15:46:37.236Z,2.65
2022-10-26T15:49:08.056Z,3.05
2022-10-26T15:51:35.485Z,2.78
2022-10-26T15:54:04.672Z,2.75
2022-10-26T15:56:32.440Z,2.83
2022-10-26T15:58:59.487Z,3.03
2022-10-26T16:01:29.637Z,2.88
2022-10-26T16:03:56.496Z,3.13
2022-10-26T16:06:34.022Z,3.40
2022-10-26T16:09:04.115Z,2.75
2022-10-26T16:11:31.054Z,3.00
2022-10-26T16:14:01.071Z,2.92
2022-10-26T16:16:30.550Z,2.70
2022-10-26T16:19:18.407Z,3.10
2022-10-26T16:21:44.276Z,2.70
2022-10-26T16:24:12.056Z,2.72
2022-10-26T16:26:38.802Z,2.63
2022-10-26T16:29:05.548Z,2.42
2022-10-26T16:31:32.313Z,2.35
2022-10-26T16:34:01.787Z,3.00
2022-10-26T16:36:32.926Z,2.67
2022-10-26T16:39:00.039Z,2.95
2022-10-26T16:41:26.863Z,3.10
2022-10-26T16:43:53.640Z,3.17
2022-10-26T16:46:21.728Z,2.95
2022-10-26T16:48:50.423Z,3.40
2022-10-26T16:51:22.612Z,2.78
2022-10-26T16:53:54.115Z,2.85
2022-10-26T16:56:25.506Z,3.03
2022-10-26T16:58:52.952Z,3.40
2022-10-26T17:01:21.478Z,3.08
2022-10-26T17:03:51.741Z,3.38
2022-10-26T17:06:19.232Z,2.83
2022-10-26T17:08:46.123Z,3.55
2022-10-26T17:11:19.744Z,2.75
2022-10-26T17:13:47.761Z,3.47
2022-10-26T17:16:21.259Z,3.10
2022-10-26T17:18:48.910Z,3.58
2022-10-26T17:21:20.346Z,3.80
2022-10-26T17:23:47.256Z,3.85
2022-10-26T17:26:15.241Z,3.55
2022-10-26T17:28:42.181Z,4.18
2022-10-26T17:31:10.482Z,4.28
2022-10-26T17:33:39.559Z,4.40
2022-10-26T17:36:07.987Z,4.38
2022-10-26T17:38:38.293Z,5.93
2022-10-26T17:41:12.015Z,4.85
2022-10-26T17:43:40.806Z,4.78
2022-10-26T17:46:14.418Z,4.65
2022-10-26T17:48:41.492Z,5.50
2022-10-26T17:51:16.381Z,5.60
2022-10-26T17:53:51.288Z,5.05
2022-10-26T17:56:32.147Z,4.93
2022-10-26T17:59:03.983Z,5.15
2022-10-26T18:01:32.189Z,5.30
2022-10-26T18:04:00.568Z,4.97
2022-10-26T18:06:27.446Z,5.00
2022-10-26T18:08:57.854Z,3.88
2022-10-26T18:11:27.212Z,4.47
2022-10-26T18:13:58.172Z,4.45
2022-10-26T18:16:27.734Z,4.65
2022-10-26T18:19:01.658Z,4.63
2022-10-26T18:21:32.509Z,4.60
2022-10-26T18:23:59.915Z,4.18
2022-10-26T18:26:29.434Z,5.10
2022-10-26T18:29:00.862Z,3.65
2022-10-26T18:31:30.546Z,4.88
2022-10-26T18:34:03.643Z,4.30
2022-10-26T18:36:31.761Z,4.43
2022-10-26T18:38:58.719Z,4.22
2022-10-26T18:41:26.624Z,4.55
2022-10-26T18:43:59.076Z,4.63
2022-10-26T18:46:29.156Z,4.45
2022-10-26T18:48:58.247Z,4.35
2022-10-26T18:51:30.685Z,4.68
2022-10-26T18:53:58.631Z,4.30
2022-10-26T18:56:26.398Z,4.78
2022-10-26T18:58:58.550Z,5.60
2022-10-26T19:01:39.610Z,6.07
2022-10-26T19:04:09.295Z,7.03
2022-10-26T19:06:45.220Z,5.97
2022-10-26T19:09:12.644Z,5.50
2022-10-26T19:11:39.668Z,5.90
2022-10-26T19:14:07.820Z,5.68
2022-10-26T19:16:50.862Z,5.15
2022-10-26T19:19:19.767Z,4.80
2022-10-26T19:21:49.425Z,5.15
2022-10-26T19:24:20.223Z,5.28
2022-10-26T19:26:49.102Z,5.50
2022-10-26T19:29:17.814Z,5.10
2022-10-26T19:31:46.228Z,5.10
2022-10-26T19:34:15.848Z,5.70
2022-10-26T19:36:45.243Z,5.25
2022-10-26T19:39:14.487Z,4.80
2022-10-26T19:41:41.417Z,4.88
2022-10-26T19:44:11.554Z,5.05
2022-10-26T19:46:39.865Z,5.28
2022-10-26T19:49:06.814Z,5.68
2022-10-26T19:51:33.671Z,4.97
2022-10-26T19:54:03.841Z,4.72
2022-10-26T19:56:32.652Z,5.43
2022-10-26T19:58:59.882Z,4.70
2022-10-26T20:01:26.899Z,4.70
2022-10-26T20:03:53.830Z,4.47
2022-10-26T20:06:20.812Z,4.60
2022-10-26T20:08:49.388Z,4.80
2022-10-26T20:11:18.591Z,4.47
2022-10-26T20:13:47.325Z,4.82
2022-10-26T20:16:16.182Z,5.07
2022-10-26T20:18:47.519Z,5.10
2022-10-26T20:21:17.379Z,4.75
2022-10-26T20:23:45.171Z,5.38
2022-10-26T20:26:19.058Z,5.22
2022-10-26T20:31:15.443Z,5.70
2022-10-26T20:33:42.292Z,5.97
2022-10-26T20:36:09.151Z,4.70
2022-10-26T20:38:36.739Z,5.07
2022-10-26T20:41:07.708Z,5.88
2022-10-26T20:43:40.199Z,4.90
2022-10-26T20:46:33.526Z,5.30
2022-10-26T20:49:00.713Z,5.47
2022-10-26T20:52:26.014Z,5.10
2022-10-26T20:55:04.685Z,5.47
2022-10-26T20:57:33.261Z,5.82
2022-10-26T21:00:09.166Z,5.22
2022-10-26T21:02:36.044Z,6.15
2022-10-26T21:05:03.556Z,5.05
2022-10-26T21:07:30.371Z,6.63
2022-10-26T21:09:57.133Z,6.18
2022-10-26T21:12:24.173Z,5.82
2022-10-26T21:14:50.969Z,6.07
2022-10-26T21:17:17.706Z,6.90
2022-10-26T21:19:44.782Z,6.43
2022-10-26T21:22:11.629Z,5.28
2022-10-26T21:24:38.392Z,5.65
2022-10-26T21:27:05.114Z,6.30
2022-10-26T21:29:31.874Z,4.97
2022-10-26T21:31:58.645Z,6.22
2022-10-26T21:34:25.503Z,6.30
2022-10-26T21:36:52.307Z,5.55
2022-10-26T21:39:19.256Z,6.88
2022-10-26T21:41:45.995Z,5.75
2022-10-26T21:44:24.725Z,7.18
2022-10-26T21:46:59.482Z,5.88
2022-10-26T21:49:26.235Z,6.28
2022-10-26T21:51:53.060Z,5.78
2022-10-26T21:54:19.832Z,6.55
2022-10-26T21:56:46.567Z,6.03
2022-10-26T21:59:13.299Z,6.60
2022-10-26T22:01:40.398Z,6.10
2022-10-26T22:04:07.530Z,6.20
2022-10-26T22:06:34.385Z,6.43
2022-10-26T22:09:01.121Z,5.88
2022-10-26T22:11:27.963Z,5.97
2022-10-26T22:13:54.733Z,6.50
2022-10-26T22:16:28.239Z,5.70
2022-10-26T22:18:58.226Z,6.35
2022-10-26T22:21:27.585Z,5.90
2022-10-26T22:23:55.247Z,6.65
2022-10-26T22:26:24.707Z,6.05
2022-10-26T22:28:55.403Z,6.28
2022-10-26T22:36:45.127Z,7.05
2022-10-26T22:39:11.872Z,6.18
2022-10-26T22:41:38.711Z,7.03
2022-10-26T22:44:05.695Z,7.97
2022-10-26T22:46:32.698Z,7.35
2022-10-26T22:49:01.999Z,6.93
2022-10-26T22:51:34.494Z,6.38
2022-10-26T22:54:03.705Z,7.47
2022-10-26T22:56:32.856Z,6.00
2022-10-26T22:58:59.843Z,6.47
2022-10-26T23:01:33.661Z,6.93
2022-10-26T23:04:00.771Z,5.82
2022-10-26T23:06:31.814Z,6.32
2022-10-26T23:08:58.945Z,5.90
2022-10-26T23:11:28.733Z,6.85
2022-10-26T23:13:58.566Z,7.10
2022-10-26T23:16:26.166Z,6.10
2022-10-26T23:18:56.184Z,7.28
2022-10-26T23:24:11.956Z,7.03
2022-10-26T23:26:38.691Z,5.90
2022-10-26T23:29:06.250Z,5.88
2022-10-26T23:31:32.976Z,6.82
2022-10-26T23:33:59.745Z,6.53
2022-10-26T23:36:26.743Z,5.20
2022-10-26T23:38:53.650Z,5.72
2022-10-26T23:41:20.400Z,6.20
2022-10-26T23:43:47.151Z,5.88
2022-10-26T23:46:14.052Z,5.97
2022-10-26T23:48:41.212Z,6.47
2022-10-26T23:51:07.986Z,7.00
2022-10-26T23:53:35.129Z,5.75
2022-10-26T23:56:02.132Z,6.40
2022-10-26T23:58:29.234Z,5.68
